sensor_id;sensor_type;location;lat;lon;timestamp;pressure;altitude;pressure_sealevel;temperature;humidity
7990;BME280;4040;42.848;23.034;2022-09-09T00:02:15;95152.50;;;14.76;100.00
7990;BME280;4040;42.848;23.034;2022-09-09T00:08:13;95131.66;;;14.73;100.00
7990;BME280;4040;42.848;23.034;2022-09-09T00:14:14;95135.44;;;14.79;100.00
7990;BME280;4040;42.848;23.034;2022-09-09T00:20:12;95139.13;;;14.69;100.00
7990;BME280;4040;42.848;23.034;2022-09-09T00:26:06;95124.19;;;14.61;100.00
7990;BME280;4040;42.848;23.034;2022-09-09T00:32:05;95140.59;;;14.54;100.00
7990;BME280;4040;42.848;23.034;2022-09-09T00:38:01;95132.81;;;14.56;100.00
7990;BME280;4040;42.848;23.034;2022-09-09T00:43:56;95140.09;;;14.59;100.00
7990;BME280;4040;42.848;23.034;2022-09-09T00:49:56;95139.34;;;14.58;100.00
7990;BME280;4040;42.848;23.034;2022-09-09T00:55:50;95134.41;;;14.53;100.00
7990;BME280;4040;42.848;23.034;2022-09-09T01:01:42;95129.19;;;14.43;100.00
7990;BME280;4040;42.848;23.034;2022-09-09T01:07:33;95127.19;;;14.27;100.00
7990;BME280;4040;42.848;23.034;2022-09-09T01:13:24;95145.16;;;14.18;100.00
7990;BME280;4040;42.848;23.034;2022-09-09T01:19:21;95162.94;;;14.19;100.00
7990;BME280;4040;42.848;23.034;2022-09-09T01:25:27;95155.06;;;14.05;100.00
7990;BME280;4040;42.848;23.034;2022-09-09T01:31:20;95159.16;;;14.13;100.00
7990;BME280;4040;42.848;23.034;2022-09-09T01:37:12;95163.19;;;14.05;100.00
7990;BME280;4040;42.848;23.034;2022-09-09T01:43:01;95153.53;;;14.04;100.00
7990;BME280;4040;42.848;23.034;2022-09-09T01:48:53;95144.41;;;13.94;100.00
7990;BME280;4040;42.848;23.034;2022-09-09T01:54:43;95131.75;;;13.88;100.00
7990;BME280;4040;42.848;23.034;2022-09-09T02:00:33;95140.38;;;13.83;100.00
7990;BME280;4040;42.848;23.034;2022-09-09T02:10:51;95146.47;;;13.87;100.00
7990;BME280;4040;42.848;23.034;2022-09-09T02:16:46;95140.22;;;13.90;100.00
7990;BME280;4040;42.848;23.034;2022-09-09T02:22:39;95148.84;;;13.85;100.00
7990;BME280;4040;42.848;23.034;2022-09-09T02:28:31;95146.38;;;13.71;100.00
7990;BME280;4040;42.848;23.034;2022-09-09T02:34:22;95154.38;;;13.78;100.00
7990;BME280;4040;42.848;23.034;2022-09-09T02:40:13;95160.56;;;13.78;100.00
7990;BME280;4040;42.848;23.034;2022-09-09T02:46:11;95158.66;;;13.75;100.00
7990;BME280;4040;42.848;23.034;2022-09-09T02:52:06;95150.47;;;13.79;100.00
7990;BME280;4040;42.848;23.034;2022-09-09T02:57:56;95150.69;;;13.68;100.00
7990;BME280;4040;42.848;23.034;2022-09-09T03:03:48;95141.53;;;13.59;100.00
7990;BME280;4040;42.848;23.034;2022-09-09T03:13:59;95144.19;;;13.62;100.00
7990;BME280;4040;42.848;23.034;2022-09-09T03:19:49;95143.06;;;13.60;100.00
7990;BME280;4040;42.848;23.034;2022-09-09T03:25:39;95133.19;;;13.50;100.00
7990;BME280;4040;42.848;23.034;2022-09-09T03:31:28;95145.44;;;13.58;100.00
7990;BME280;4040;42.848;23.034;2022-09-09T03:37:19;95154.56;;;13.67;100.00
7990;BME280;4040;42.848;23.034;2022-09-09T03:43:07;95159.31;;;13.60;100.00
7990;BME280;4040;42.848;23.034;2022-09-09T03:48:56;95154.72;;;13.57;100.00
7990;BME280;4040;42.848;23.034;2022-09-09T03:54:47;95150.44;;;13.36;100.00
7990;BME280;4040;42.848;23.034;2022-09-09T04:00:35;95159.78;;;13.32;100.00
7990;BME280;4040;42.848;23.034;2022-09-09T04:06:25;95152.31;;;13.39;100.00
7990;BME280;4040;42.848;23.034;2022-09-09T04:16:37;95159.38;;;13.56;100.00
7990;BME280;4040;42.848;23.034;2022-09-09T04:22:25;95165.31;;;13.71;100.00
7990;BME280;4040;42.848;23.034;2022-09-09T04:28:15;95157.88;;;13.98;100.00
7990;BME280;4040;42.848;23.034;2022-09-09T04:34:05;95099.72;;;14.06;100.00
7990;BME280;4040;42.848;23.034;2022-09-09T04:39:55;95149.41;;;14.77;100.00
7990;BME280;4040;42.848;23.034;2022-09-09T04:45:46;95121.22;;;14.91;100.00
7990;BME280;4040;42.848;23.034;2022-09-09T04:51:36;95142.00;;;15.48;100.00
7990;BME280;4040;42.848;23.034;2022-09-09T04:57:26;95149.34;;;17.47;100.00
7990;BME280;4040;42.848;23.034;2022-09-09T05:03:16;95146.09;;;18.45;100.00
7990;BME280;4040;42.848;23.034;2022-09-09T05:09:06;95142.88;;;19.90;100.00
7990;BME280;4040;42.848;23.034;2022-09-09T05:19:16;95106.47;;;23.03;100.00
7990;BME280;4040;42.848;23.034;2022-09-09T05:25:08;95106.44;;;25.26;100.00
7990;BME280;4040;42.848;23.034;2022-09-09T05:30:58;95102.44;;;27.38;80.22
7990;BME280;4040;42.848;23.034;2022-09-09T05:36:47;95101.22;;;28.51;72.76
7990;BME280;4040;42.848;23.034;2022-09-09T05:42:38;95093.81;;;28.76;70.27
7990;BME280;4040;42.848;23.034;2022-09-09T05:48:28;95092.63;;;30.00;64.00
7990;BME280;4040;42.848;23.034;2022-09-09T05:54:18;95099.28;;;30.82;54.47
7990;BME280;4040;42.848;23.034;2022-09-09T06:00:10;95108.59;;;31.03;55.61
7990;BME280;4040;42.848;23.034;2022-09-09T06:06:00;95116.69;;;31.56;51.64
7990;BME280;4040;42.848;23.034;2022-09-09T06:12:12;95125.59;;;31.36;52.03
7990;BME280;4040;42.848;23.034;2022-09-09T06:22:04;95121.63;;;33.24;43.13
7990;BME280;4040;42.848;23.034;2022-09-09T06:27:54;95107.97;;;32.35;42.08
7990;BME280;4040;42.848;23.034;2022-09-09T06:33:42;95090.72;;;33.09;40.09
7990;BME280;4040;42.848;23.034;2022-09-09T06:39:33;95103.78;;;34.93;40.57
7990;BME280;4040;42.848;23.034;2022-09-09T06:45:22;95108.53;;;36.38;37.35
7990;BME280;4040;42.848;23.034;2022-09-09T06:51:13;95118.13;;;35.25;36.60
7990;BME280;4040;42.848;23.034;2022-09-09T06:57:04;95108.72;;;33.96;40.06
7990;BME280;4040;42.848;23.034;2022-09-09T07:02:54;95101.38;;;35.55;38.75
7990;BME280;4040;42.848;23.034;2022-09-09T07:08:43;95105.53;;;36.59;38.16
7990;BME280;4040;42.848;23.034;2022-09-09T07:14:34;95095.56;;;37.27;33.47
7990;BME280;4040;42.848;23.034;2022-09-09T07:24:46;95098.25;;;36.03;37.11
7990;BME280;4040;42.848;23.034;2022-09-09T07:30:38;95092.88;;;34.19;39.16
7990;BME280;4040;42.848;23.034;2022-09-09T07:36:28;95121.84;;;31.97;42.08
7990;BME280;4040;42.848;23.034;2022-09-09T07:42:17;95116.84;;;31.14;46.29
7990;BME280;4040;42.848;23.034;2022-09-09T07:48:09;95114.31;;;30.92;44.98
7990;BME280;4040;42.848;23.034;2022-09-09T07:53:59;95095.47;;;29.65;45.91
7990;BME280;4040;42.848;23.034;2022-09-09T07:59:49;95115.69;;;29.25;50.86
7990;BME280;4040;42.848;23.034;2022-09-09T08:05:39;95095.53;;;28.84;51.54
7990;BME280;4040;42.848;23.034;2022-09-09T08:11:29;95082.78;;;27.91;51.96
7990;BME280;4040;42.848;23.034;2022-09-09T08:17:18;95102.13;;;26.29;55.75
7990;BME280;4040;42.848;23.034;2022-09-09T08:27:30;95099.38;;;27.58;57.29
7990;BME280;4040;42.848;23.034;2022-09-09T08:33:19;95095.22;;;28.47;53.85
7990;BME280;4040;42.848;23.034;2022-09-09T08:39:09;95082.47;;;30.93;50.05
7990;BME280;4040;42.848;23.034;2022-09-09T08:45:16;95088.78;;;30.75;46.19
7990;BME280;4040;42.848;23.034;2022-09-09T08:51:07;95092.31;;;30.33;48.03
7990;BME280;4040;42.848;23.034;2022-09-09T08:56:56;95085.31;;;29.97;51.10
7990;BME280;4040;42.848;23.034;2022-09-09T09:02:54;95089.16;;;29.35;53.75
7990;BME280;4040;42.848;23.034;2022-09-09T09:08:54;95080.28;;;29.07;52.54
7990;BME280;4040;42.848;23.034;2022-09-09T09:14:48;95082.13;;;28.31;52.69
7990;BME280;4040;42.848;23.034;2022-09-09T09:20:44;95067.50;;;28.47;52.99
7990;BME280;4040;42.848;23.034;2022-09-09T09:26:35;95068.34;;;28.15;53.74
7990;BME280;4040;42.848;23.034;2022-09-09T09:32:24;95072.00;;;27.33;57.46
7990;BME280;4040;42.848;23.034;2022-09-09T09:38:19;95078.66;;;26.60;60.40
7990;BME280;4040;42.848;23.034;2022-09-09T09:44:22;95083.06;;;26.31;63.44
7990;BME280;4040;42.848;23.034;2022-09-09T09:50:19;95057.34;;;26.03;73.37
7990;BME280;4040;42.848;23.034;2022-09-09T09:56:11;95085.59;;;26.39;76.69
7990;BME280;4040;42.848;23.034;2022-09-09T10:02:22;95086.97;;;26.71;82.84
7990;BME280;4040;42.848;23.034;2022-09-09T10:08:14;95083.97;;;26.69;78.60
7990;BME280;4040;42.848;23.034;2022-09-09T10:14:11;95103.31;;;26.69;92.18
7990;BME280;4040;42.848;23.034;2022-09-09T10:20:27;95099.03;;;26.63;93.69
7990;BME280;4040;42.848;23.034;2022-09-09T10:30:46;95100.38;;;27.11;86.73
7990;BME280;4040;42.848;23.034;2022-09-09T10:36:41;95106.97;;;27.30;90.37
7990;BME280;4040;42.848;23.034;2022-09-09T10:42:32;95109.72;;;27.30;83.18
7990;BME280;4040;42.848;23.034;2022-09-09T10:48:54;95095.63;;;27.67;88.95
7990;BME280;4040;42.848;23.034;2022-09-09T10:51:28;95092.34;;;28.01;88.64
7990;BME280;4040;42.848;23.034;2022-09-09T10:57:25;95102.16;;;28.70;75.88
7990;BME280;4040;42.848;23.034;2022-09-09T11:03:21;95089.50;;;28.80;79.20
7990;BME280;4040;42.848;23.034;2022-09-09T11:09:16;95052.78;;;29.09;77.10
7990;BME280;4040;42.848;23.034;2022-09-09T11:15:15;95053.78;;;29.41;76.93
7990;BME280;4040;42.848;23.034;2022-09-09T11:21:16;95037.94;;;29.36;76.48
7990;BME280;4040;42.848;23.034;2022-09-09T11:31:00;95015.97;;;29.67;74.12
7990;BME280;4040;42.848;23.034;2022-09-09T11:37:15;95015.97;;;30.34;76.18
7990;BME280;4040;42.848;23.034;2022-09-09T11:43:10;95005.75;;;30.23;71.53
7990;BME280;4040;42.848;23.034;2022-09-09T11:49:02;94986.16;;;29.92;70.43
7990;BME280;4040;42.848;23.034;2022-09-09T11:54:51;94995.50;;;29.94;70.64
7990;BME280;4040;42.848;23.034;2022-09-09T12:00:44;94984.66;;;29.91;70.91
7990;BME280;4040;42.848;23.034;2022-09-09T12:06:42;94988.25;;;30.10;68.82
7990;BME280;4040;42.848;23.034;2022-09-09T12:12:34;94968.44;;;29.95;69.33
7990;BME280;4040;42.848;23.034;2022-09-09T12:18:24;94971.81;;;29.40;71.34
7990;BME280;4040;42.848;23.034;2022-09-09T12:24:19;94957.59;;;28.90;71.50
7990;BME280;4040;42.848;23.034;2022-09-09T12:34:16;94945.97;;;28.97;78.21
7990;BME280;4040;42.848;23.034;2022-09-09T12:40:20;94942.91;;;29.30;80.83
7990;BME280;4040;42.848;23.034;2022-09-09T12:46:17;94940.63;;;29.05;72.26
7990;BME280;4040;42.848;23.034;2022-09-09T12:52:18;94937.44;;;29.48;74.74
7990;BME280;4040;42.848;23.034;2022-09-09T12:58:13;94943.13;;;29.80;75.06
7990;BME280;4040;42.848;23.034;2022-09-09T13:04:19;94940.31;;;29.61;74.70
7990;BME280;4040;42.848;23.034;2022-09-09T13:10:11;94932.13;;;28.97;77.95
7990;BME280;4040;42.848;23.034;2022-09-09T13:16:03;94922.38;;;28.50;74.62
7990;BME280;4040;42.848;23.034;2022-09-09T13:21:54;94902.03;;;28.42;82.21
7990;BME280;4040;42.848;23.034;2022-09-09T13:27:53;94890.31;;;27.68;83.92
7990;BME280;4040;42.848;23.034;2022-09-09T13:33:43;94889.47;;;27.16;92.36
7990;BME280;4040;42.848;23.034;2022-09-09T13:39:33;94878.69;;;27.13;100.00
7990;BME280;4040;42.848;23.034;2022-09-09T13:45:25;94884.63;;;27.44;100.00
7990;BME280;4040;42.848;23.034;2022-09-09T13:51:37;94884.78;;;27.63;96.89
7990;BME280;4040;42.848;23.034;2022-09-09T13:57:26;94893.88;;;27.58;90.61
7990;BME280;4040;42.848;23.034;2022-09-09T14:03:15;94882.72;;;27.17;88.41
7990;BME280;4040;42.848;23.034;2022-09-09T14:09:06;94880.69;;;27.12;96.76
7990;BME280;4040;42.848;23.034;2022-09-09T14:14:55;94881.47;;;26.69;100.00
7990;BME280;4040;42.848;23.034;2022-09-09T14:20:45;94879.47;;;26.42;99.44
7990;BME280;4040;42.848;23.034;2022-09-09T14:26:35;94867.53;;;25.76;100.00
7990;BME280;4040;42.848;23.034;2022-09-09T14:36:35;94872.28;;;25.17;100.00
7990;BME280;4040;42.848;23.034;2022-09-09T14:42:26;94879.31;;;25.18;100.00
7990;BME280;4040;42.848;23.034;2022-09-09T14:48:16;94881.63;;;24.83;100.00
7990;BME280;4040;42.848;23.034;2022-09-09T14:54:05;94885.84;;;24.78;100.00
7990;BME280;4040;42.848;23.034;2022-09-09T14:59:55;94893.00;;;24.65;100.00
7990;BME280;4040;42.848;23.034;2022-09-09T15:05:44;94895.50;;;24.63;100.00
7990;BME280;4040;42.848;23.034;2022-09-09T15:11:35;94900.69;;;24.55;100.00
7990;BME280;4040;42.848;23.034;2022-09-09T15:17:26;94894.84;;;24.48;100.00
7990;BME280;4040;42.848;23.034;2022-09-09T15:23:15;94891.31;;;24.16;100.00
7990;BME280;4040;42.848;23.034;2022-09-09T15:29:04;94884.41;;;24.01;100.00
7990;BME280;4040;42.848;23.034;2022-09-09T15:39:18;94891.88;;;23.75;100.00
7990;BME280;4040;42.848;23.034;2022-09-09T15:45:08;94881.88;;;23.52;100.00
7990;BME280;4040;42.848;23.034;2022-09-09T15:51:01;94879.34;;;23.29;100.00
7990;BME280;4040;42.848;23.034;2022-09-09T15:56:54;94877.47;;;23.20;100.00
7990;BME280;4040;42.848;23.034;2022-09-09T16:02:43;94880.31;;;22.91;100.00
7990;BME280;4040;42.848;23.034;2022-09-09T16:08:32;94873.84;;;22.60;100.00
7990;BME280;4040;42.848;23.034;2022-09-09T16:14:23;94871.63;;;22.29;100.00
7990;BME280;4040;42.848;23.034;2022-09-09T16:20:11;94873.78;;;22.25;100.00
7990;BME280;4040;42.848;23.034;2022-09-09T16:26:01;94869.34;;;22.13;100.00
7990;BME280;4040;42.848;23.034;2022-09-09T16:31:52;94877.97;;;21.92;100.00
7990;BME280;4040;42.848;23.034;2022-09-09T16:42:03;94878.44;;;21.90;100.00
7990;BME280;4040;42.848;23.034;2022-09-09T16:47:54;94872.38;;;21.86;100.00
7990;BME280;4040;42.848;23.034;2022-09-09T16:54:04;94878.97;;;21.65;100.00
7990;BME280;4040;42.848;23.034;2022-09-09T16:59:54;94888.53;;;21.46;100.00
7990;BME280;4040;42.848;23.034;2022-09-09T17:05:47;94897.41;;;21.41;100.00
7990;BME280;4040;42.848;23.034;2022-09-09T17:11:37;94900.78;;;21.36;100.00
7990;BME280;4040;42.848;23.034;2022-09-09T17:17:27;94887.50;;;21.20;100.00
7990;BME280;4040;42.848;23.034;2022-09-09T17:23:17;94880.06;;;20.97;100.00
7990;BME280;4040;42.848;23.034;2022-09-09T17:29:06;94893.19;;;20.84;100.00
7990;BME280;4040;42.848;23.034;2022-09-09T17:34:55;94902.72;;;20.66;100.00
7990;BME280;4040;42.848;23.034;2022-09-09T17:45:07;94906.75;;;20.47;100.00
7990;BME280;4040;42.848;23.034;2022-09-09T17:50:57;94891.69;;;20.10;100.00
7990;BME280;4040;42.848;23.034;2022-09-09T17:56:47;94925.06;;;20.23;100.00
7990;BME280;4040;42.848;23.034;2022-09-09T18:02:37;94948.19;;;20.13;100.00
7990;BME280;4040;42.848;23.034;2022-09-09T18:08:26;94953.34;;;20.11;100.00
7990;BME280;4040;42.848;23.034;2022-09-09T18:14:18;94926.84;;;20.35;100.00
7990;BME280;4040;42.848;23.034;2022-09-09T18:20:09;94954.16;;;20.53;100.00
7990;BME280;4040;42.848;23.034;2022-09-09T18:25:58;94946.66;;;20.62;100.00
7990;BME280;4040;42.848;23.034;2022-09-09T18:31:47;94954.59;;;20.60;100.00
7990;BME280;4040;42.848;23.034;2022-09-09T18:37:38;94962.34;;;20.62;100.00
7990;BME280;4040;42.848;23.034;2022-09-09T18:47:48;94947.16;;;20.52;100.00
7990;BME280;4040;42.848;23.034;2022-09-09T18:53:39;94946.25;;;20.46;100.00
7990;BME280;4040;42.848;23.034;2022-09-09T18:59:29;94957.22;;;20.46;100.00
7990;BME280;4040;42.848;23.034;2022-09-09T19:05:17;94955.34;;;20.61;100.00
7990;BME280;4040;42.848;23.034;2022-09-09T19:11:10;94950.50;;;20.47;100.00
7990;BME280;4040;42.848;23.034;2022-09-09T19:16:59;94943.56;;;20.37;100.00
7990;BME280;4040;42.848;23.034;2022-09-09T19:22:48;94952.22;;;20.44;100.00
7990;BME280;4040;42.848;23.034;2022-09-09T19:28:38;94943.09;;;20.38;100.00
7990;BME280;4040;42.848;23.034;2022-09-09T19:34:27;94944.16;;;20.50;100.00
7990;BME280;4040;42.848;23.034;2022-09-09T19:40:16;94934.38;;;20.49;100.00
7990;BME280;4040;42.848;23.034;2022-09-09T19:50:34;94925.31;;;20.43;100.00
7990;BME280;4040;42.848;23.034;2022-09-09T19:56:25;94919.88;;;20.34;100.00
7990;BME280;4040;42.848;23.034;2022-09-09T20:02:13;94910.94;;;20.24;100.00
7990;BME280;4040;42.848;23.034;2022-09-09T20:08:04;94900.78;;;20.07;100.00
7990;BME280;4040;42.848;23.034;2022-09-09T20:13:53;94905.34;;;20.01;100.00
7990;BME280;4040;42.848;23.034;2022-09-09T20:19:41;94902.03;;;19.79;100.00
7990;BME280;4040;42.848;23.034;2022-09-09T20:25:34;94922.03;;;20.03;100.00
7990;BME280;4040;42.848;23.034;2022-09-09T20:31:25;94915.06;;;19.84;100.00
7990;BME280;4040;42.848;23.034;2022-09-09T20:37:14;94918.09;;;19.86;100.00
7990;BME280;4040;42.848;23.034;2022-09-09T20:43:05;94891.84;;;19.70;100.00
7990;BME280;4040;42.848;23.034;2022-09-09T20:53:16;94918.16;;;19.68;100.00
7990;BME280;4040;42.848;23.034;2022-09-09T20:59:08;94927.84;;;19.60;100.00
7990;BME280;4040;42.848;23.034;2022-09-09T21:04:57;94927.22;;;19.65;100.00
7990;BME280;4040;42.848;23.034;2022-09-09T21:10:47;94937.53;;;19.34;100.00
7990;BME280;4040;42.848;23.034;2022-09-09T21:16:39;94935.09;;;19.18;100.00
7990;BME280;4040;42.848;23.034;2022-09-09T21:22:27;94933.84;;;19.10;100.00
7990;BME280;4040;42.848;23.034;2022-09-09T21:28:18;94947.47;;;19.01;100.00
7990;BME280;4040;42.848;23.034;2022-09-09T21:34:08;94947.47;;;19.01;100.00
7990;BME280;4040;42.848;23.034;2022-09-09T21:39:59;94940.81;;;19.11;100.00
7990;BME280;4040;42.848;23.034;2022-09-09T21:45:48;94945.38;;;19.05;100.00
7990;BME280;4040;42.848;23.034;2022-09-09T21:56:04;94941.88;;;19.04;100.00
7990;BME280;4040;42.848;23.034;2022-09-09T22:08:35;94953.97;;;18.46;100.00
7990;BME280;4040;42.848;23.034;2022-09-09T22:14:24;94934.75;;;18.28;100.00
7990;BME280;4040;42.848;23.034;2022-09-09T22:20:13;94940.88;;;18.32;100.00
7990;BME280;4040;42.848;23.034;2022-09-09T22:26:04;94920.19;;;18.22;100.00
7990;BME280;4040;42.848;23.034;2022-09-09T22:31:53;94937.28;;;18.44;100.00
7990;BME280;4040;42.848;23.034;2022-09-09T22:37:43;94931.09;;;18.22;100.00
7990;BME280;4040;42.848;23.034;2022-09-09T22:43:32;94936.38;;;18.16;100.00
7990;BME280;4040;42.848;23.034;2022-09-09T22:49:21;94931.09;;;18.22;100.00
7990;BME280;4040;42.848;23.034;2022-09-09T22:55:10;94928.56;;;18.06;100.00
7990;BME280;4040;42.848;23.034;2022-09-09T23:01:00;94906.41;;;17.95;100.00
7990;BME280;4040;42.848;23.034;2022-09-09T23:06:54;94911.72;;;17.98;100.00
7990;BME280;4040;42.848;23.034;2022-09-09T23:12:43;94919.06;;;18.10;100.00
7990;BME280;4040;42.848;23.034;2022-09-09T23:18:34;94906.75;;;18.06;100.00
7990;BME280;4040;42.848;23.034;2022-09-09T23:24:26;94894.59;;;17.98;100.00
7990;BME280;4040;42.848;23.034;2022-09-09T23:30:15;94893.38;;;17.90;100.00
7990;BME280;4040;42.848;23.034;2022-09-09T23:36:09;94885.44;;;17.83;100.00
7990;BME280;4040;42.848;23.034;2022-09-09T23:41:58;94880.94;;;17.89;100.00
7990;BME280;4040;42.848;23.034;2022-09-09T23:47:47;94889.88;;;17.90;100.00
7990;BME280;4040;42.848;23.034;2022-09-09T23:53:39;94883.63;;;17.80;100.00
7990;BME280;4040;42.848;23.034;2022-09-09T23:59:28;94885.91;;;17.60;100.00
